Time;durP1;ratioP1;P1;durP2;ratioP2;P2;SDS_P1;SDS_P2;PMS_P1;PMS_P2;Temp;Humidity;BMP_temperature;BMP_pressure;BME280_temperature;BME280_humidity;BME280_pressure;Samples;Min_cycle;Max_cycle;Signal;HPM_P1;HPM_P2
2022/07/03 00:00:10;;;;;;;3.17;2.03;;;;;;;15.59;76.74;101624.44;5086483;28;20043;-71
2022/07/03 00:02:38;;;;;;;2.72;1.80;;;;;;;15.57;76.45;101622.69;5070073;28;20035;-71
2022/07/03 00:05:04;;;;;;;2.80;1.90;;;;;;;15.53;76.12;101626.69;5066690;28;20086;-68
2022/07/03 00:07:30;;;;;;;5.53;1.95;;;;;;;15.50;76.43;101626.03;5067345;28;20036;-71
2022/07/03 00:09:56;;;;;;;3.75;1.63;;;;;;;15.47;76.64;101620.78;5066397;28;20082;-71
2022/07/03 00:12:21;;;;;;;4.97;2.40;;;;;;;15.43;76.18;101625.66;5071956;28;20044;-70
2022/07/03 00:14:46;;;;;;;4.57;2.50;;;;;;;15.41;76.82;101630.41;5081383;28;20040;-71
2022/07/03 00:17:12;;;;;;;3.78;2.38;;;;;;;15.38;76.45;101638.00;5064951;28;20169;-72
2022/07/03 00:19:37;;;;;;;3.88;2.20;;;;;;;15.31;76.27;101652.19;5066523;28;20028;-72
2022/07/03 00:22:05;;;;;;;7.68;3.28;;;;;;;15.28;76.38;101648.81;5065353;28;20035;-72
2022/07/03 00:25:15;;;;;;;3.88;3.22;;;;;;;15.22;76.27;101663.03;5066109;28;20094;-72
2022/07/03 00:27:44;;;;;;;7.68;3.53;;;;;;;15.18;76.52;101653.28;5069276;28;20506;-72
2022/07/03 00:30:10;;;;;;;4.38;3.47;;;;;;;15.20;76.41;101665.91;5066113;28;20024;-72
2022/07/03 00:32:38;;;;;;;6.70;3.88;;;;;;;15.20;76.69;101665.91;5064284;28;20037;-72
2022/07/03 00:35:04;;;;;;;4.03;3.20;;;;;;;15.21;76.69;101664.03;5067051;28;20079;-68
2022/07/03 00:37:30;;;;;;;5.35;3.38;;;;;;;15.15;77.38;101659.00;5066848;28;20605;-72
2022/07/03 00:39:57;;;;;;;5.13;3.55;;;;;;;15.18;76.15;101662.38;5066296;28;20103;-72
2022/07/03 00:42:22;;;;;;;8.07;3.97;;;;;;;15.20;76.23;101663.16;5065135;28;20170;-71
2022/07/03 00:44:53;;;;;;;6.63;3.67;;;;;;;15.22;76.17;101665.75;5066013;28;20119;-72
2022/07/03 00:47:22;;;;;;;6.00;3.80;;;;;;;15.18;76.57;101662.38;5071909;28;20040;-71
2022/07/03 00:49:49;;;;;;;4.65;3.58;;;;;;;15.18;76.26;101661.50;5066102;28;20021;-71
2022/07/03 00:52:19;;;;;;;4.53;3.75;;;;;;;15.10;77.14;101653.88;5066029;28;20432;-71
2022/07/03 00:54:55;;;;;;;7.30;3.90;;;;;;;15.10;75.90;101658.50;5066232;28;20040;-71
2022/07/03 00:57:22;;;;;;;5.10;3.63;;;;;;;14.94;77.08;101656.97;5064794;28;20046;-71
2022/07/03 00:59:47;;;;;;;7.18;3.78;;;;;;;14.94;77.36;101656.97;5065790;28;20059;-72
2022/07/03 01:02:25;;;;;;;4.13;3.30;;;;;;;14.91;76.98;101659.94;5071344;28;20490;-70
2022/07/03 01:05:11;;;;;;;5.50;3.35;;;;;;;14.90;76.89;101658.19;5065999;28;20052;-71
2022/07/03 01:07:40;;;;;;;8.50;4.03;;;;;;;14.89;77.10;101659.19;5066261;28;20045;-71
2022/07/03 01:10:40;;;;;;;5.30;4.07;;;;;;;14.86;77.05;101655.81;5064862;28;20028;-71
2022/07/03 01:13:18;;;;;;;6.15;4.40;;;;;;;14.81;77.79;101658.91;5064669;28;20031;-71
2022/07/03 01:15:57;;;;;;;6.57;3.85;;;;;;;14.79;76.78;101660.91;5064859;28;20076;-72
2022/07/03 01:18:50;;;;;;;7.13;4.15;;;;;;;14.77;76.79;101660.13;5064709;28;20046;-72
2022/07/03 01:21:41;;;;;;;4.70;4.22;;;;;;;14.70;77.10;101661.63;5066139;28;20043;-72
2022/07/03 01:24:14;;;;;;;8.20;3.95;;;;;;;14.64;78.30;101662.06;5065301;28;20509;-71
2022/07/03 01:26:41;;;;;;;7.15;3.40;;;;;;;14.64;77.96;101664.78;5072528;28;20035;-71
2022/07/03 01:29:11;;;;;;;5.72;4.55;;;;;;;14.67;77.53;101661.84;5071643;28;20066;-71
2022/07/03 01:31:39;;;;;;;5.32;3.55;;;;;;;14.67;77.16;101665.44;5069603;28;20064;-71
2022/07/03 01:34:14;;;;;;;4.20;3.80;;;;;;;14.64;77.22;101659.31;5070185;28;20458;-69
2022/07/03 01:36:42;;;;;;;8.32;4.32;;;;;;;14.64;76.93;101651.09;5069967;28;20071;-71
2022/07/03 01:39:10;;;;;;;7.28;3.67;;;;;;;14.69;76.32;101651.66;5069953;28;20037;-71
2022/07/03 01:41:37;;;;;;;4.47;4.07;;;;;;;14.69;77.56;101651.66;5084999;28;20036;-70
2022/07/03 01:44:03;;;;;;;6.57;4.75;;;;;;;14.69;76.89;101647.03;5069000;28;20051;-71
2022/07/03 01:46:31;;;;;;;5.25;3.83;;;;;;;14.67;76.53;101657.22;5072126;28;20071;-72
2022/07/03 01:48:58;;;;;;;6.82;4.18;;;;;;;14.59;76.46;101651.47;5071738;28;20110;-71
2022/07/03 01:51:24;;;;;;;4.68;3.72;;;;;;;14.52;77.06;101659.28;5069537;28;20503;-72
2022/07/03 01:53:51;;;;;;;5.28;4.18;;;;;;;14.46;77.22;101656.97;5068657;28;20028;-71
2022/07/03 01:56:20;;;;;;;7.22;3.70;;;;;;;14.44;77.83;101658.94;5068928;28;20124;-71
2022/07/03 01:58:45;;;;;;;7.75;3.90;;;;;;;14.42;76.90;101654.59;5067955;28;20108;-71
2022/07/03 02:01:30;;;;;;;10.10;4.20;;;;;;;14.33;77.92;101653.41;5069126;28;20035;-71
2022/07/03 02:04:07;;;;;;;6.30;4.25;;;;;;;14.26;77.95;101657.59;5070359;28;20040;-71
2022/07/03 02:07:06;;;;;;;6.35;3.90;;;;;;;14.27;77.15;101643.81;5069733;28;20138;-71
2022/07/03 02:10:03;;;;;;;5.65;3.80;;;;;;;14.25;77.52;101645.78;5069393;28;20060;-71
2022/07/03 02:12:42;;;;;;;8.10;4.38;;;;;;;14.16;77.41;101649.19;5067173;28;20040;-72
2022/07/03 02:15:10;;;;;;;5.60;3.80;;;;;;;14.08;78.59;101640.69;5068384;28;20040;-72
2022/07/03 02:17:38;;;;;;;3.60;3.30;;;;;;;14.03;77.76;101637.41;5067498;28;20435;-70
2022/07/03 02:20:07;;;;;;;4.22;3.83;;;;;;;13.97;78.07;101641.50;5068714;28;20025;-68
2022/07/03 02:22:35;;;;;;;5.68;3.33;;;;;;;13.95;77.98;101637.13;5069614;28;20040;-72
2022/07/03 02:25:06;;;;;;;7.95;3.72;;;;;;;13.93;78.43;101641.81;5069138;28;20043;-70
2022/07/03 02:27:41;;;;;;;7.43;3.80;;;;;;;13.88;78.27;101636.69;5071447;28;20118;-71
2022/07/03 02:30:07;;;;;;;6.55;3.88;;;;;;;13.82;78.20;101637.16;5068211;28;20052;-71
2022/07/03 02:32:38;;;;;;;8.60;3.95;;;;;;;13.79;78.64;101642.84;5069431;28;20048;-71
2022/07/03 02:35:11;;;;;;;6.00;4.00;;;;;;;13.78;78.66;101643.84;5068978;28;20024;-69
2022/07/03 02:37:59;;;;;;;8.07;4.40;;;;;;;13.78;78.44;101638.38;5068922;28;20552;-71
2022/07/03 02:40:34;;;;;;;8.98;4.15;;;;;;;13.76;78.13;101643.97;5068557;28;20111;-71
2022/07/03 02:43:33;;;;;;;6.30;4.00;;;;;;;13.76;77.97;101652.16;5048662;28;20130;-71
2022/07/03 02:48:54;;;;;;;6.35;4.28;;;;;;;13.63;79.48;101642.22;5067340;28;20085;-72
2022/07/03 02:51:22;;;;;;;5.22;4.10;;;;;;;13.61;79.39;101639.59;5067720;28;20037;-72
2022/07/03 02:53:58;;;;;;;5.53;3.72;;;;;;;13.59;78.90;101644.31;5068036;28;20033;-71
2022/07/03 02:56:54;;;;;;;6.72;4.15;;;;;;;13.54;79.34;101638.28;5067696;28;20145;-71
2022/07/03 02:59:33;;;;;;;6.47;4.07;;;;;;;13.49;79.71;101630.44;5067101;28;20032;-72
2022/07/03 03:02:14;;;;;;;6.82;4.00;;;;;;;13.47;79.23;101636.97;5069361;28;20483;-72
2022/07/03 03:04:48;;;;;;;7.05;3.90;;;;;;;13.44;79.92;101638.09;5068213;28;20137;-71
2022/07/03 03:07:16;;;;;;;5.53;3.90;;;;;;;13.42;79.32;101633.69;5067306;28;20125;-70
2022/07/03 03:09:43;;;;;;;7.40;3.72;;;;;;;13.38;79.42;101637.63;5067661;28;20044;-71
2022/07/03 03:12:11;;;;;;;7.30;4.25;;;;;;;13.37;79.61;101647.69;5067029;28;20217;-71
2022/07/03 03:14:42;;;;;;;6.65;3.67;;;;;;;13.35;79.46;101640.59;5066596;28;20149;-71
2022/07/03 03:17:13;;;;;;;4.55;3.97;;;;;;;13.33;79.50;101648.03;5065484;28;20044;-69
2022/07/03 03:19:46;;;;;;;7.03;4.18;;;;;;;13.30;79.22;101651.00;5066956;28;20036;-71
2022/07/03 03:22:30;;;;;;;5.90;4.13;;;;;;;13.28;79.94;101642.88;5067581;28;20047;-72
2022/07/03 03:24:56;;;;;;;4.65;3.75;;;;;;;13.26;80.31;101653.06;5067432;28;20044;-71
2022/07/03 03:27:22;;;;;;;4.30;3.38;;;;;;;13.27;79.44;101658.41;5075762;28;20082;-72
2022/07/03 03:29:48;;;;;;;4.78;3.67;;;;;;;13.26;79.29;101653.06;5086554;28;20278;-72
2022/07/03 03:32:16;;;;;;;4.32;3.65;;;;;;;13.27;79.27;101654.81;5078158;28;20082;-71
2022/07/03 03:34:41;;;;;;;6.00;3.65;;;;;;;13.26;79.66;101651.19;5065432;28;20487;-72
2022/07/03 03:37:07;;;;;;;4.13;3.50;;;;;;;13.26;80.42;101653.94;5067310;28;20117;-71
2022/07/03 03:39:32;;;;;;;6.53;3.92;;;;;;;13.27;80.22;101650.22;5067299;28;20200;-72
2022/07/03 03:42:00;;;;;;;5.10;4.32;;;;;;;13.28;80.69;101662.88;5048330;28;20089;-72
2022/07/03 03:44:26;;;;;;;6.35;3.83;;;;;;;13.28;80.16;101659.28;5065976;28;20024;-72
2022/07/03 03:46:51;;;;;;;6.50;4.20;;;;;;;13.32;79.91;101668.16;5066397;28;20470;-72
2022/07/03 03:49:17;;;;;;;4.78;4.00;;;;;;;13.31;79.83;101658.19;5065225;28;20036;-71
2022/07/03 03:51:43;;;;;;;5.43;3.83;;;;;;;13.30;80.43;101656.47;5066432;28;20045;-71
2022/07/03 03:54:08;;;;;;;5.10;4.10;;;;;;;13.33;80.27;101664.41;5067080;28;20052;-72
2022/07/03 03:56:33;;;;;;;5.82;3.85;;;;;;;13.38;80.28;101667.69;5067265;28;20103;-69
2022/07/03 03:58:59;;;;;;;8.13;4.28;;;;;;;13.41;80.83;101662.03;5064446;28;20029;-71
2022/07/03 04:01:24;;;;;;;7.60;4.95;;;;;;;13.42;80.02;101658.31;5066410;28;20464;-72
2022/07/03 04:03:49;;;;;;;7.72;5.18;;;;;;;13.44;80.81;101646.28;5067636;28;20087;-71
2022/07/03 04:06:15;;;;;;;6.05;4.00;;;;;;;13.49;79.88;101648.69;5065119;28;20049;-71
2022/07/03 04:08:40;;;;;;;6.22;4.18;;;;;;;13.52;80.92;101657.56;5066032;28;20036;-72
2022/07/03 04:11:05;;;;;;;4.97;3.83;;;;;;;13.57;80.81;101661.78;5066077;28;20070;-72
2022/07/03 04:13:31;;;;;;;6.15;3.92;;;;;;;13.56;81.18;101660.91;5065753;28;20036;-72
2022/07/03 04:15:56;;;;;;;7.97;4.10;;;;;;;13.51;81.70;101650.31;5082035;28;20127;-71
2022/07/03 04:18:22;;;;;;;5.43;4.00;;;;;;;13.52;81.39;101662.13;5064974;28;20024;-72
2022/07/03 04:20:47;;;;;;;6.68;4.60;;;;;;;13.54;81.25;101660.16;5066471;28;20043;-72
2022/07/03 04:23:13;;;;;;;5.53;4.05;;;;;;;13.54;80.76;101657.44;5072837;28;20040;-72
2022/07/03 04:25:38;;;;;;;5.38;4.57;;;;;;;13.57;80.74;101656.31;5065419;28;20033;-71
2022/07/03 04:28:04;;;;;;;5.30;4.63;;;;;;;13.51;82.21;101653.03;5063482;28;20028;-68
2022/07/03 04:30:29;;;;;;;5.88;3.75;;;;;;;13.52;81.64;101665.75;5066982;28;20041;-72
2022/07/03 04:32:54;;;;;;;6.68;4.18;;;;;;;13.52;81.92;101670.31;5065906;28;20056;-71
2022/07/03 04:35:20;;;;;;;5.10;4.60;;;;;;;13.54;82.02;101673.84;5065066;28;20121;-72
2022/07/03 04:37:45;;;;;;;4.35;3.90;;;;;;;13.59;81.77;101670.78;5065475;28;20036;-72
2022/07/03 04:40:12;;;;;;;6.13;4.55;;;;;;;13.67;82.11;101663.78;5065896;28;20033;-71
2022/07/03 04:42:37;;;;;;;6.18;4.25;;;;;;;13.85;81.50;101674.34;5064548;28;20476;-71
2022/07/03 04:45:04;;;;;;;6.72;4.20;;;;;;;13.95;81.60;101676.31;5069350;28;20085;-71
2022/07/03 04:47:29;;;;;;;9.48;4.25;;;;;;;14.09;80.85;101669.81;5065179;28;20043;-72
2022/07/03 04:49:54;;;;;;;8.82;4.47;;;;;;;14.21;80.86;101677.09;5064744;28;20024;-72
2022/07/03 04:52:20;;;;;;;6.28;3.85;;;;;;;14.30;80.66;101676.41;5066280;28;20037;-72
2022/07/03 04:54:45;;;;;;;9.45;4.80;;;;;;;14.34;80.48;101679.81;5066597;28;20104;-72
2022/07/03 04:57:11;;;;;;;5.15;4.45;;;;;;;14.38;79.34;101688.66;5063117;28;20067;-72
2022/07/03 04:59:36;;;;;;;5.63;4.38;;;;;;;14.42;79.78;101693.78;5065216;28;20072;-71
2022/07/03 05:02:02;;;;;;;7.70;4.88;;;;;;;14.43;80.45;101676.38;5070588;28;20029;-71
2022/07/03 05:04:27;;;;;;;6.53;4.97;;;;;;;14.49;79.68;101680.53;5069805;28;20051;-72
2022/07/03 05:06:52;;;;;;;5.72;4.28;;;;;;;14.54;79.00;101681.94;5070466;28;20710;-72
2022/07/03 05:09:18;;;;;;;6.90;4.80;;;;;;;14.53;78.87;101673.84;5070355;28;20066;-72
2022/07/03 05:11:44;;;;;;;7.57;4.68;;;;;;;14.54;78.72;101679.19;5069386;28;20144;-72
2022/07/03 05:14:09;;;;;;;9.25;4.40;;;;;;;14.52;78.98;101674.84;5068781;28;20504;-72
2022/07/03 05:16:34;;;;;;;6.32;4.90;;;;;;;14.55;78.66;101680.09;5070549;28;20028;-72
2022/07/03 05:19:00;;;;;;;5.15;4.65;;;;;;;14.60;78.54;101677.88;5069551;28;20044;-72
2022/07/03 05:21:25;;;;;;;9.10;4.95;;;;;;;14.63;78.26;101683.09;5068786;28;20490;-73
2022/07/03 05:23:51;;;;;;;7.18;4.57;;;;;;;14.70;78.49;101689.00;5070044;28;20032;-72
2022/07/03 05:26:16;;;;;;;8.90;5.50;;;;;;;14.66;78.67;101685.63;5068850;28;20185;-71
2022/07/03 05:28:42;;;;;;;6.20;4.40;;;;;;;14.67;78.27;101700.19;5074573;28;20051;-72
2022/07/03 05:31:07;;;;;;;11.40;5.32;;;;;;;14.62;78.40;101691.44;5069343;28;20049;-72
2022/07/03 05:33:33;;;;;;;7.80;4.82;;;;;;;14.59;78.89;101692.53;5072582;28;20047;-72
2022/07/03 05:35:58;;;;;;;9.38;5.47;;;;;;;14.62;79.13;101691.44;5069625;28;20052;-72
2022/07/03 05:41:08;;;;;;;9.20;5.13;;;;;;;14.71;78.88;101701.69;5068961;28;20047;-72
2022/07/03 05:43:34;;;;;;;12.10;5.35;;;;;;;14.76;79.32;101705.81;5068450;28;20322;-72
2022/07/03 05:46:00;;;;;;;8.88;5.47;;;;;;;14.79;79.49;101696.53;5068988;28;20037;-72
2022/07/03 05:48:25;;;;;;;7.25;5.72;;;;;;;14.82;79.66;101696.25;5068382;28;20094;-72
2022/07/03 05:50:51;;;;;;;9.57;5.55;;;;;;;14.82;79.50;101696.25;5069527;28;20155;-72
2022/07/03 05:53:16;;;;;;;7.50;5.18;;;;;;;14.84;79.31;101696.16;5069023;28;20040;-73
2022/07/03 05:55:41;;;;;;;6.28;5.10;;;;;;;14.91;78.06;101701.03;5069099;28;20113;-72
2022/07/03 05:58:07;;;;;;;6.90;5.15;;;;;;;14.98;80.32;101702.31;5068332;28;20024;-71
2022/07/03 06:00:32;;;;;;;9.05;5.53;;;;;;;15.04;79.69;101710.06;5069965;28;20441;-72
2022/07/03 06:02:58;;;;;;;10.65;5.63;;;;;;;15.08;80.15;101704.34;5070042;28;20033;-73
2022/07/03 06:05:23;;;;;;;8.52;5.30;;;;;;;15.10;80.12;101705.97;5069129;28;20064;-72
2022/07/03 06:07:49;;;;;;;7.18;5.20;;;;;;;15.15;79.34;101709.22;5068911;28;20037;-72
2022/07/03 06:10:15;;;;;;;9.70;5.45;;;;;;;15.19;79.63;101707.97;5068224;28;20055;-73
2022/07/03 06:12:40;;;;;;;9.68;5.25;;;;;;;15.24;80.12;101711.25;5067651;28;20555;-73
2022/07/03 06:15:06;;;;;;;11.43;5.38;;;;;;;15.30;81.10;101713.53;5068540;28;20424;-73
2022/07/03 06:17:34;;;;;;;7.10;5.35;;;;;;;15.38;80.67;101718.38;5067842;28;20420;-73
2022/07/03 06:20:00;;;;;;;6.80;4.47;;;;;;;15.50;80.12;101716.56;5069547;28;20040;-73
2022/07/03 06:22:25;;;;;;;10.23;5.28;;;;;;;15.61;80.23;101718.44;5068975;28;20533;-72
2022/07/03 06:24:50;;;;;;;9.95;5.20;;;;;;;15.71;78.97;101712.09;5066817;28;20028;-73
2022/07/03 06:27:16;;;;;;;8.98;4.88;;;;;;;15.76;78.95;101711.75;5068151;28;20107;-72
2022/07/03 06:29:41;;;;;;;8.25;4.53;;;;;;;15.82;79.12;101717.63;5067557;28;20071;-72
2022/07/03 06:32:07;;;;;;;8.68;4.80;;;;;;;15.88;78.67;101708.00;5071448;28;20044;-70
2022/07/03 06:34:32;;;;;;;10.13;5.05;;;;;;;15.92;78.74;101715.00;5068727;28;20117;-73
2022/07/03 06:36:57;;;;;;;11.55;4.95;;;;;;;15.98;78.89;101727.34;5068117;28;20217;-73
2022/07/03 06:39:23;;;;;;;10.07;4.70;;;;;;;15.99;78.99;101710.78;5067007;28;20086;-72
2022/07/03 06:41:48;;;;;;;8.48;4.90;;;;;;;16.05;79.37;101712.16;5067053;28;20035;-70
2022/07/03 06:44:14;;;;;;;6.60;4.60;;;;;;;16.08;79.04;101714.63;5067237;28;20056;-72
2022/07/03 06:46:39;;;;;;;10.18;4.70;;;;;;;16.14;77.84;101713.28;5083830;28;20373;-72
2022/07/03 06:49:04;;;;;;;10.90;4.88;;;;;;;16.18;78.68;101712.88;5067486;28;20075;-73
2022/07/03 06:51:30;;;;;;;6.82;4.50;;;;;;;16.27;79.12;101713.97;5069066;28;20032;-72
2022/07/03 06:53:55;;;;;;;7.60;4.32;;;;;;;16.33;77.84;101713.50;5068341;28;20050;-73
2022/07/03 06:56:20;;;;;;;7.30;4.22;;;;;;;16.37;77.84;101706.75;5067195;28;20067;-72
2022/07/03 06:58:46;;;;;;;5.20;3.90;;;;;;;16.42;77.80;101722.84;5066792;28;20094;-73
2022/07/03 07:01:11;;;;;;;9.20;4.63;;;;;;;16.42;78.10;101718.22;5066208;28;20085;-70
2022/07/03 07:03:36;;;;;;;6.32;3.83;;;;;;;16.45;79.13;101717.06;5070307;28;20483;-72
2022/07/03 07:06:02;;;;;;;10.20;4.50;;;;;;;16.47;78.13;101721.44;5068692;28;20475;-73
2022/07/03 07:08:27;;;;;;;6.95;3.95;;;;;;;16.48;77.93;101709.47;5067679;28;20040;-73
2022/07/03 07:10:53;;;;;;;7.53;4.28;;;;;;;16.52;76.99;101718.31;5065599;28;20506;-72
2022/07/03 07:13:18;;;;;;;8.52;4.35;;;;;;;16.59;78.34;101711.28;5066739;28;20035;-72
2022/07/03 07:15:43;;;;;;;10.38;4.00;;;;;;;16.62;77.55;101711.03;5068001;28;20480;-72
2022/07/03 07:18:09;;;;;;;8.10;3.45;;;;;;;16.70;77.69;101718.66;5066895;28;20024;-72
2022/07/03 07:20:34;;;;;;;8.50;3.88;;;;;;;16.79;76.46;101724.28;5067836;28;20074;-71
2022/07/03 07:22:59;;;;;;;10.15;3.70;;;;;;;16.88;76.11;101714.38;5067600;28;20375;-73
2022/07/03 07:25:25;;;;;;;10.55;4.28;;;;;;;16.98;76.58;101715.34;5066343;28;20047;-72
2022/07/03 07:27:50;;;;;;;6.18;3.97;;;;;;;17.10;76.94;101718.91;5073806;28;20040;-73
2022/07/03 07:30:15;;;;;;;6.10;3.40;;;;;;;17.21;75.75;101726.25;5082411;28;20358;-73
2022/07/03 07:32:41;;;;;;;6.32;3.30;;;;;;;17.29;75.78;101724.53;5073209;28;20046;-72
2022/07/03 07:35:07;;;;;;;6.90;3.78;;;;;;;17.31;74.92;101733.56;5067554;28;20035;-72
2022/07/03 07:37:32;;;;;;;8.73;3.67;;;;;;;17.39;76.42;101732.00;5068112;28;20040;-72
2022/07/03 07:39:58;;;;;;;7.57;3.58;;;;;;;17.43;74.13;101733.47;5067006;28;20039;-72
2022/07/03 07:42:24;;;;;;;9.60;3.45;;;;;;;17.45;75.07;101734.22;5066670;28;20052;-72
2022/07/03 07:44:49;;;;;;;9.93;3.92;;;;;;;17.49;74.11;101736.56;5065288;28;20462;-72
2022/07/03 07:47:15;;;;;;;9.95;4.47;;;;;;;17.50;74.35;101737.44;5066305;28;20056;-71
2022/07/03 07:49:40;;;;;;;6.60;3.88;;;;;;;17.56;74.25;101732.25;5066224;28;20071;-70
2022/07/03 07:52:06;;;;;;;6.95;3.67;;;;;;;17.66;74.67;101734.22;5066502;28;20040;-73
2022/07/03 07:54:31;;;;;;;5.63;3.30;;;;;;;17.73;73.62;101729.91;5067784;28;20059;-72
2022/07/03 07:56:57;;;;;;;5.75;3.78;;;;;;;17.80;73.50;101734.75;5064907;28;20328;-72
2022/07/03 07:59:22;;;;;;;7.13;3.45;;;;;;;17.88;73.76;101735.97;5066139;28;20036;-71
2022/07/03 08:07:15;;;;;;;6.57;3.83;;;;;;;18.38;74.43;101739.69;5065601;28;20044;-73
2022/07/03 08:09:40;;;;;;;5.40;3.17;;;;;;;18.70;71.90;101747.78;5067200;28;20044;-72
2022/07/03 08:12:06;;;;;;;11.05;4.35;;;;;;;19.08;69.66;101735.03;5066094;28;20105;-72
2022/07/03 08:14:32;;;;;;;6.78;3.85;;;;;;;19.53;68.55;101739.94;5066532;28;20060;-71
2022/07/03 08:16:58;;;;;;;4.70;3.15;;;;;;;20.14;67.90;101745.03;5066549;28;20411;-71
2022/07/03 08:19:23;;;;;;;9.07;3.22;;;;;;;20.77;67.17;101744.31;5065829;28;20834;-72
2022/07/03 08:21:48;;;;;;;8.10;3.65;;;;;;;21.44;64.08;101739.28;5067279;28;20104;-72
2022/07/03 08:24:16;;;;;;;6.10;2.97;;;;;;;21.89;63.48;101736.34;5066516;28;20411;-72
2022/07/03 08:26:41;;;;;;;11.20;3.45;;;;;;;22.26;61.70;101738.84;5081594;28;20034;-73
2022/07/03 08:29:06;;;;;;;4.15;2.60;;;;;;;22.51;59.88;101742.56;5065654;28;20540;-72
2022/07/03 08:31:32;;;;;;;4.95;2.60;;;;;;;22.92;59.43;101748.28;5069068;28;20051;-69
2022/07/03 08:33:57;;;;;;;2.85;2.13;;;;;;;23.20;56.21;101740.53;5071397;28;20089;-72
2022/07/03 08:36:22;;;;;;;5.10;2.08;;;;;;;23.31;55.71;101739.31;5066764;28;20044;-71
2022/07/03 08:38:48;;;;;;;5.28;2.30;;;;;;;23.37;54.09;101742.28;5066679;28;20032;-71
2022/07/03 08:41:15;;;;;;;3.78;1.80;;;;;;;23.72;53.93;101740.19;5079918;28;20048;-72
2022/07/03 08:43:43;;;;;;;3.95;2.50;;;;;;;23.80;51.27;101739.34;5065024;28;20067;-72
2022/07/03 08:46:11;;;;;;;4.43;1.80;;;;;;;24.35;54.59;101736.56;5066535;28;20126;-71
2022/07/03 08:48:37;;;;;;;5.78;2.47;;;;;;;24.55;50.61;101728.69;5064775;28;20039;-72
2022/07/03 08:51:02;;;;;;;3.53;2.05;;;;;;;24.79;54.33;101727.69;5067424;28;20504;-71
2022/07/03 08:53:28;;;;;;;4.38;2.22;;;;;;;25.31;51.01;101735.34;5066791;28;20117;-71
2022/07/03 08:55:54;;;;;;;7.32;2.50;;;;;;;25.10;50.68;101732.41;5065376;28;20111;-71
2022/07/03 08:58:22;;;;;;;4.82;2.78;;;;;;;25.17;50.21;101723.09;5065510;28;20036;-70
2022/07/03 09:00:48;;;;;;;4.85;2.60;;;;;;;25.52;51.14;101740.25;5066438;28;20158;-72
2022/07/03 09:03:14;;;;;;;4.95;2.85;;;;;;;25.63;49.33;101736.13;5068516;28;20024;-72
2022/07/03 09:05:40;;;;;;;5.80;2.40;;;;;;;25.86;50.13;101730.53;5065817;28;20047;-72
2022/07/03 09:08:08;;;;;;;3.33;2.15;;;;;;;25.96;49.91;101731.13;5066375;28;20037;-72
2022/07/03 09:10:33;;;;;;;8.40;2.20;;;;;;;25.89;50.91;101730.19;5066645;28;20518;-72
2022/07/03 09:12:59;;;;;;;6.63;2.70;;;;;;;26.13;50.51;101738.28;5065373;28;20029;-72
2022/07/03 09:15:24;;;;;;;4.82;3.15;;;;;;;25.89;46.42;101725.47;5066092;28;20021;-72
2022/07/03 09:17:58;;;;;;;4.70;2.55;;;;;;;25.48;49.93;101735.25;5064953;28;20051;-71
2022/07/03 09:20:38;;;;;;;6.45;2.75;;;;;;;25.36;51.43;101732.00;5066021;28;20062;-72
2022/07/03 09:23:20;;;;;;;5.72;3.10;;;;;;;25.65;53.12;101731.25;5065903;28;20097;-68
2022/07/03 09:25:58;;;;;;;4.50;1.92;;;;;;;26.10;51.03;101737.78;5065873;28;20041;-71
2022/07/03 09:28:43;;;;;;;3.88;2.55;;;;;;;26.08;49.16;101737.97;5064910;28;20467;-70
2022/07/03 09:31:11;;;;;;;5.78;2.88;;;;;;;26.03;46.41;101746.06;5066326;28;20124;-72
2022/07/03 09:34:01;;;;;;;7.95;3.25;;;;;;;26.10;49.55;101741.44;5068294;28;20546;-71
2022/07/03 09:36:46;;;;;;;4.70;3.28;;;;;;;26.09;47.78;101739.69;5066130;28;20119;-72
2022/07/03 09:39:31;;;;;;;5.38;3.35;;;;;;;26.10;49.94;101748.94;5064128;28;20052;-71
2022/07/03 09:42:09;;;;;;;7.90;3.33;;;;;;;26.35;50.17;101752.31;5065521;28;20116;-72
2022/07/03 09:44:45;;;;;;;5.22;2.90;;;;;;;26.84;46.80;101752.56;5069005;28;20062;-71
2022/07/03 09:47:14;;;;;;;3.83;3.20;;;;;;;26.75;47.21;101750.09;5079812;28;20047;-71
2022/07/03 09:49:57;;;;;;;5.30;2.67;;;;;;;27.06;48.80;101755.41;5068892;28;20414;-70
2022/07/03 09:52:31;;;;;;;4.57;2.97;;;;;;;26.96;47.07;101750.13;5069886;28;20136;-71
2022/07/03 09:54:59;;;;;;;5.25;2.78;;;;;;;27.04;45.69;101750.00;5069476;28;20387;-71
2022/07/03 09:57:27;;;;;;;5.80;2.53;;;;;;;26.99;46.68;101748.88;5068089;28;20032;-73
2022/07/03 10:00:21;;;;;;;3.33;2.45;;;;;;;27.43;47.41;101745.94;5068223;28;20032;-71
2022/07/03 10:03:20;;;;;;;4.38;2.55;;;;;;;27.96;46.95;101741.69;5071979;28;20341;-71
2022/07/03 10:05:45;;;;;;;4.47;3.10;;;;;;;28.33;44.34;101745.16;5035417;28;20052;-72
2022/07/03 10:08:13;;;;;;;5.93;2.95;;;;;;;28.22;45.44;101741.00;5069069;28;20529;-72
2022/07/03 10:10:46;;;;;;;5.68;3.58;;;;;;;28.14;44.67;101741.16;5067152;28;20048;-71
2022/07/03 10:13:13;;;;;;;4.00;3.35;;;;;;;27.76;44.71;101751.00;5068099;28;20548;-73
2022/07/03 10:15:39;;;;;;;6.45;3.08;;;;;;;27.14;45.69;101747.81;5069204;28;20039;-71
2022/07/03 10:18:06;;;;;;;2.95;2.38;;;;;;;26.78;44.80;101747.78;5067826;28;20028;-71
2022/07/03 10:20:39;;;;;;;5.82;2.83;;;;;;;26.84;45.80;101748.91;5068130;28;20459;-71
2022/07/03 10:23:04;;;;;;;5.65;2.22;;;;;;;27.13;45.99;101753.56;5068659;28;20119;-71
2022/07/03 10:25:31;;;;;;;1.85;1.60;;;;;;;27.68;47.59;101744.44;5069806;28;20127;-73
2022/07/03 10:27:57;;;;;;;5.60;2.30;;;;;;;27.94;44.88;101749.41;5078769;28;20047;-71
2022/07/03 10:30:23;;;;;;;3.15;2.15;;;;;;;28.07;43.29;101751.47;5068872;28;20426;-72
2022/07/03 10:32:54;;;;;;;3.50;1.52;;;;;;;28.65;43.92;101752.03;5071908;28;20036;-72
2022/07/03 10:35:24;;;;;;;6.38;2.20;;;;;;;28.63;42.82;101754.19;5084468;28;20028;-72
2022/07/03 10:37:57;;;;;;;2.95;1.42;;;;;;;28.70;43.16;101757.84;5068854;28;20029;-72
2022/07/03 10:46:25;;;;;;;2.38;1.42;;;;;;;28.12;41.69;101762.00;5068536;28;20163;-71
2022/07/03 10:48:58;;;;;;;3.60;1.30;;;;;;;28.44;42.25;101758.59;5067821;28;20496;-72
2022/07/03 10:51:25;;;;;;;4.25;1.63;;;;;;;28.30;41.75;101764.28;5068700;28;20136;-73
2022/07/03 10:54:17;;;;;;;3.72;1.38;;;;;;;28.16;42.78;101760.53;5083966;28;20519;-72
2022/07/03 10:56:57;;;;;;;;;;;;;;;28.27;44.61;101762.78;5068188;28;20044;-71
2022/07/03 10:59:44;;;;;;;6.28;1.50;;;;;;;28.11;41.52;101761.16;5066172;28;19985;-71
2022/07/03 11:02:33;;;;;;;3.28;1.55;;;;;;;28.47;42.29;101757.31;5073626;28;20023;-71
2022/07/03 11:05:01;;;;;;;2.67;1.40;;;;;;;28.72;41.17;101760.44;5088321;28;20091;-71
2022/07/03 11:07:32;;;;;;;1.45;1.08;;;;;;;28.75;40.95;101768.44;5076143;28;20139;-73
2022/07/03 11:10:12;;;;;;;3.05;1.70;;;;;;;28.40;42.95;101757.28;5068238;28;20044;-71
2022/07/03 11:12:56;;;;;;;3.67;1.20;;;;;;;27.98;42.75;101761.06;5067121;28;20054;-71
2022/07/03 11:15:28;;;;;;;2.83;1.30;;;;;;;27.81;42.35;101754.03;5068048;28;20040;-72
2022/07/03 11:18:09;;;;;;;3.42;1.20;;;;;;;28.43;43.81;101754.06;5066407;28;20040;-72
2022/07/03 11:20:57;;;;;;;1.92;1.10;;;;;;;28.50;40.75;101742.06;5068235;28;20044;-69
2022/07/03 11:23:25;;;;;;;5.70;1.77;;;;;;;28.75;42.27;101746.03;5057593;28;20083;-72
2022/07/03 11:25:52;;;;;;;2.45;1.80;;;;;;;28.76;40.78;101744.94;5067062;28;20499;-69
2022/07/03 11:28:32;;;;;;;3.40;1.85;;;;;;;28.95;41.20;101738.59;5066335;28;20032;-71
2022/07/03 11:33:50;;;;;;;4.65;1.95;;;;;;;28.98;38.92;101738.16;5070525;28;20036;-69
2022/07/03 11:36:16;;;;;;;3.40;1.90;;;;;;;28.30;39.31;101737.16;5067869;28;20063;-72
2022/07/03 11:38:42;;;;;;;4.30;2.13;;;;;;;27.90;41.02;101741.63;5066362;28;20137;-71
2022/07/03 11:41:10;;;;;;;2.70;2.38;;;;;;;27.34;43.33;101742.41;5067483;28;20498;-69
2022/07/03 11:43:35;;;;;;;5.03;2.53;;;;;;;27.25;43.34;101739.94;5065830;28;20476;-69
2022/07/03 11:46:03;;;;;;;3.38;2.47;;;;;;;27.19;42.44;101736.03;5066600;28;20040;-70
2022/07/03 11:48:29;;;;;;;4.30;2.63;;;;;;;27.04;43.79;101750.00;5072328;28;20384;-70
2022/07/03 11:51:03;;;;;;;8.30;2.30;;;;;;;26.87;43.25;101741.00;5087418;28;20028;-68
2022/07/03 11:53:34;;;;;;;3.65;2.58;;;;;;;26.68;44.34;101744.44;5086641;28;20120;-70